Union Springs, Louisiana
Current Conditions -  °F | °C
As of 1:55 PM on Saturday 25 Oct 2014 (Local Time) from KIER Reporting Station
Clear Clear  
Wind Chill: 82°   Ceiling: Unl
Heat Index: 82°   Visibility: 10mi
Dew Point: 58°   Wind: 0mph
Humidity: 44%   Direction: NA
Pressure: 30.13"   Gusts: NA
Location:  31.7915°N, 93.7011°W
Report Text: KIER 251855Z AUTO 00000KT 10SM CLR 28/15 A3013 RMK AO2 T02800147
Loading
Personal Weather Stations






























Interactive Weather Map
Tropical Storm Tracking
New forecast layout! Learn more

10-Day Weather Forecast

Advertisements
Track Severe Weather on mobile